Weather at Korçë Teni Konomi City Hospital Heliport [CLOSED]

Public forecast

Using degrees Celsius for public forecast. Weather courtesy of forecast.io.

Closest aviation weather report (METAR) to Korçë Teni Konomi City Hospital Heliport

Report is more than 2 hours old.

Closest report is Ohrid St. Paul the Apostle Airport, 34.2 nm (63.3 km) N.

2024/05/23 18:50 (retrieved 6 hours ago)

LWOH 231850Z 24004KT 9999 FEW050 15/09 Q1018

Closest aviation forecast (TAF) to Korçë Teni Konomi City Hospital Heliport

Forecast is more than 6 hours old.

Closest forecast is Kukës International Airport, 87.1 nm (161.4 km) N.

2024/05/23 18:00 Ammendment (retrieved 7 hours ago)

TAF AMD LAKU 231900Z 2318/2418 CNL